sensor_id;sensor_type;location;lat;lon;timestamp;temperature;humidity
51801;DHT22;37855;53.204;6.568;2023-09-19T00:00:57;15.20;77.20
51801;DHT22;37855;53.204;6.568;2023-09-19T00:03:23;15.10;77.30
51801;DHT22;37855;53.204;6.568;2023-09-19T00:05:53;15.10;77.50
51801;DHT22;37855;53.204;6.568;2023-09-19T00:10:56;15.10;77.50
51801;DHT22;37855;53.204;6.568;2023-09-19T00:16:11;15.00;77.70
51801;DHT22;37855;53.204;6.568;2023-09-19T00:18:41;15.00;77.70
51801;DHT22;37855;53.204;6.568;2023-09-19T00:24:29;15.00;77.70
51801;DHT22;37855;53.204;6.568;2023-09-19T00:27:06;15.10;77.50
51801;DHT22;37855;53.204;6.568;2023-09-19T00:29:34;15.00;77.30
51801;DHT22;37855;53.204;6.568;2023-09-19T00:32:07;15.00;77.30
51801;DHT22;37855;53.204;6.568;2023-09-19T01:08:34;14.70;76.00
51801;DHT22;37855;53.204;6.568;2023-09-19T01:11:42;14.60;75.90
51801;DHT22;37855;53.204;6.568;2023-09-19T01:33:16;14.20;75.90
51801;DHT22;37855;53.204;6.568;2023-09-19T01:35:45;14.20;76.10
51801;DHT22;37855;53.204;6.568;2023-09-19T01:38:38;14.20;76.10
51801;DHT22;37855;53.204;6.568;2023-09-19T01:41:26;14.20;75.80
51801;DHT22;37855;53.204;6.568;2023-09-19T01:44:09;14.20;75.70
51801;DHT22;37855;53.204;6.568;2023-09-19T02:00:22;14.10;75.30
51801;DHT22;37855;53.204;6.568;2023-09-19T02:05:30;14.10;75.20
51801;DHT22;37855;53.204;6.568;2023-09-19T02:16:02;13.90;75.20
51801;DHT22;37855;53.204;6.568;2023-09-19T02:19:03;13.90;75.30
51801;DHT22;37855;53.204;6.568;2023-09-19T02:21:36;13.80;75.30
51801;DHT22;37855;53.204;6.568;2023-09-19T02:24:06;13.90;75.40
51801;DHT22;37855;53.204;6.568;2023-09-19T02:30:14;13.80;75.30
51801;DHT22;37855;53.204;6.568;2023-09-19T02:35:58;13.80;75.40
51801;DHT22;37855;53.204;6.568;2023-09-19T02:38:25;13.70;75.50
51801;DHT22;37855;53.204;6.568;2023-09-19T02:40:54;13.70;75.50
51801;DHT22;37855;53.204;6.568;2023-09-19T02:43:21;13.70;75.40
51801;DHT22;37855;53.204;6.568;2023-09-19T02:45:47;13.70;75.30
51801;DHT22;37855;53.204;6.568;2023-09-19T02:48:18;13.70;75.30
51801;DHT22;37855;53.204;6.568;2023-09-19T02:50:43;13.70;75.30
51801;DHT22;37855;53.204;6.568;2023-09-19T02:53:11;13.60;75.30
51801;DHT22;37855;53.204;6.568;2023-09-19T02:55:41;13.60;75.20
51801;DHT22;37855;53.204;6.568;2023-09-19T03:09:05;13.60;74.60
51801;DHT22;37855;53.204;6.568;2023-09-19T03:12:36;13.60;74.50
51801;DHT22;37855;53.204;6.568;2023-09-19T03:18:34;13.60;74.40
51801;DHT22;37855;53.204;6.568;2023-09-19T03:21:00;13.60;74.30
51801;DHT22;37855;53.204;6.568;2023-09-19T03:23:27;13.60;74.40
51801;DHT22;37855;53.204;6.568;2023-09-19T03:25:54;13.60;74.20
51801;DHT22;37855;53.204;6.568;2023-09-19T03:28:23;13.60;74.10
51801;DHT22;37855;53.204;6.568;2023-09-19T03:31:05;13.60;74.20
51801;DHT22;37855;53.204;6.568;2023-09-19T03:33:31;13.60;74.10
51801;DHT22;37855;53.204;6.568;2023-09-19T03:35:58;13.60;74.20
51801;DHT22;37855;53.204;6.568;2023-09-19T03:38:25;13.60;74.10
51801;DHT22;37855;53.204;6.568;2023-09-19T03:40:52;13.60;74.20
51801;DHT22;37855;53.204;6.568;2023-09-19T03:43:19;13.60;74.30
51801;DHT22;37855;53.204;6.568;2023-09-19T03:45:45;13.50;74.40
51801;DHT22;37855;53.204;6.568;2023-09-19T03:48:15;13.60;74.50
51801;DHT22;37855;53.204;6.568;2023-09-19T03:50:40;13.50;74.60
51801;DHT22;37855;53.204;6.568;2023-09-19T03:53:09;13.50;74.60
51801;DHT22;37855;53.204;6.568;2023-09-19T03:55:35;13.50;74.90
51801;DHT22;37855;53.204;6.568;2023-09-19T03:58:02;13.50;75.00
51801;DHT22;37855;53.204;6.568;2023-09-19T04:00:29;13.50;75.30
51801;DHT22;37855;53.204;6.568;2023-09-19T04:02:55;13.50;75.40
51801;DHT22;37855;53.204;6.568;2023-09-19T04:05:22;13.50;75.60
51801;DHT22;37855;53.204;6.568;2023-09-19T04:07:48;13.40;75.80
51801;DHT22;37855;53.204;6.568;2023-09-19T04:10:15;13.50;75.90
51801;DHT22;37855;53.204;6.568;2023-09-19T04:12:49;13.50;75.90
51801;DHT22;37855;53.204;6.568;2023-09-19T04:15:15;13.50;76.10
51801;DHT22;37855;53.204;6.568;2023-09-19T04:17:41;13.50;76.20
51801;DHT22;37855;53.204;6.568;2023-09-19T04:20:07;13.60;76.30
51801;DHT22;37855;53.204;6.568;2023-09-19T04:22:38;13.60;76.30
51801;DHT22;37855;53.204;6.568;2023-09-19T04:25:05;13.60;76.30
51801;DHT22;37855;53.204;6.568;2023-09-19T04:42:57;13.60;76.60
51801;DHT22;37855;53.204;6.568;2023-09-19T04:45:24;13.60;76.70
51801;DHT22;37855;53.204;6.568;2023-09-19T04:47:49;13.60;76.70
51801;DHT22;37855;53.204;6.568;2023-09-19T04:50:15;13.60;76.80
51801;DHT22;37855;53.204;6.568;2023-09-19T04:52:43;13.60;76.80
51801;DHT22;37855;53.204;6.568;2023-09-19T04:55:16;13.60;76.90
51801;DHT22;37855;53.204;6.568;2023-09-19T04:57:46;13.60;77.00
51801;DHT22;37855;53.204;6.568;2023-09-19T05:00:22;13.70;77.10
51801;DHT22;37855;53.204;6.568;2023-09-19T05:02:56;13.70;77.10
51801;DHT22;37855;53.204;6.568;2023-09-19T05:05:22;13.70;77.10
51801;DHT22;37855;53.204;6.568;2023-09-19T05:07:49;13.70;77.10
51801;DHT22;37855;53.204;6.568;2023-09-19T05:10:16;13.70;77.10
51801;DHT22;37855;53.204;6.568;2023-09-19T05:12:44;13.70;77.20
51801;DHT22;37855;53.204;6.568;2023-09-19T05:15:14;13.70;77.00
51801;DHT22;37855;53.204;6.568;2023-09-19T05:17:48;13.60;77.20
51801;DHT22;37855;53.204;6.568;2023-09-19T05:20:14;13.70;77.40
51801;DHT22;37855;53.204;6.568;2023-09-19T05:22:44;13.70;77.30
51801;DHT22;37855;53.204;6.568;2023-09-19T05:25:11;13.70;77.40
51801;DHT22;37855;53.204;6.568;2023-09-19T05:27:42;13.70;77.50
51801;DHT22;37855;53.204;6.568;2023-09-19T05:30:08;13.70;77.40
51801;DHT22;37855;53.204;6.568;2023-09-19T05:32:34;13.70;77.40
51801;DHT22;37855;53.204;6.568;2023-09-19T05:35:00;13.70;77.50
51801;DHT22;37855;53.204;6.568;2023-09-19T05:37:25;13.70;77.40
51801;DHT22;37855;53.204;6.568;2023-09-19T05:39:52;13.70;77.50
51801;DHT22;37855;53.204;6.568;2023-09-19T05:42:19;13.80;77.60
51801;DHT22;37855;53.204;6.568;2023-09-19T05:44:45;13.80;77.50
51801;DHT22;37855;53.204;6.568;2023-09-19T05:47:10;13.80;77.50
51801;DHT22;37855;53.204;6.568;2023-09-19T05:49:36;13.80;77.40
51801;DHT22;37855;53.204;6.568;2023-09-19T05:52:07;13.80;77.40
51801;DHT22;37855;53.204;6.568;2023-09-19T05:54:33;13.80;77.40
51801;DHT22;37855;53.204;6.568;2023-09-19T05:57:03;13.80;77.40
51801;DHT22;37855;53.204;6.568;2023-09-19T05:59:29;13.80;77.40
51801;DHT22;37855;53.204;6.568;2023-09-19T06:01:55;13.80;77.40
51801;DHT22;37855;53.204;6.568;2023-09-19T06:04:21;13.80;77.40
51801;DHT22;37855;53.204;6.568;2023-09-19T06:06:47;13.90;77.50
51801;DHT22;37855;53.204;6.568;2023-09-19T06:09:14;13.90;77.40
51801;DHT22;37855;53.204;6.568;2023-09-19T06:11:42;13.90;77.40
51801;DHT22;37855;53.204;6.568;2023-09-19T06:14:07;14.00;77.40
51801;DHT22;37855;53.204;6.568;2023-09-19T06:16:33;14.00;77.30
51801;DHT22;37855;53.204;6.568;2023-09-19T06:18:59;14.00;77.30
51801;DHT22;37855;53.204;6.568;2023-09-19T06:21:27;14.00;77.20
51801;DHT22;37855;53.204;6.568;2023-09-19T06:23:53;14.00;77.10
51801;DHT22;37855;53.204;6.568;2023-09-19T06:26:19;14.10;77.10
51801;DHT22;37855;53.204;6.568;2023-09-19T06:28:45;14.10;76.90
51801;DHT22;37855;53.204;6.568;2023-09-19T06:31:11;14.10;76.90
51801;DHT22;37855;53.204;6.568;2023-09-19T06:33:38;14.20;76.80
51801;DHT22;37855;53.204;6.568;2023-09-19T06:36:05;14.20;76.70
51801;DHT22;37855;53.204;6.568;2023-09-19T06:38:31;14.20;76.70
51801;DHT22;37855;53.204;6.568;2023-09-19T06:40:59;14.20;76.60
51801;DHT22;37855;53.204;6.568;2023-09-19T06:43:27;14.20;76.30
51801;DHT22;37855;53.204;6.568;2023-09-19T06:45:54;14.30;76.40
51801;DHT22;37855;53.204;6.568;2023-09-19T06:48:20;14.30;76.30
51801;DHT22;37855;53.204;6.568;2023-09-19T06:50:46;14.30;76.20
51801;DHT22;37855;53.204;6.568;2023-09-19T06:53:13;14.40;76.10
51801;DHT22;37855;53.204;6.568;2023-09-19T06:55:39;14.50;75.90
51801;DHT22;37855;53.204;6.568;2023-09-19T06:58:05;14.50;75.50
51801;DHT22;37855;53.204;6.568;2023-09-19T07:00:31;14.60;75.50
51801;DHT22;37855;53.204;6.568;2023-09-19T07:03:03;14.60;75.40
51801;DHT22;37855;53.204;6.568;2023-09-19T07:05:30;14.70;75.40
51801;DHT22;37855;53.204;6.568;2023-09-19T07:07:58;14.70;75.20
51801;DHT22;37855;53.204;6.568;2023-09-19T07:10:25;14.80;75.10
51801;DHT22;37855;53.204;6.568;2023-09-19T07:15:24;14.80;74.90
51801;DHT22;37855;53.204;6.568;2023-09-19T07:17:54;14.90;74.90
51801;DHT22;37855;53.204;6.568;2023-09-19T07:20:22;14.90;74.10
51801;DHT22;37855;53.204;6.568;2023-09-19T07:22:49;15.00;74.30
51801;DHT22;37855;53.204;6.568;2023-09-19T07:25:16;15.10;74.40
51801;DHT22;37855;53.204;6.568;2023-09-19T07:27:42;15.10;74.30
51801;DHT22;37855;53.204;6.568;2023-09-19T07:30:08;15.20;74.30
51801;DHT22;37855;53.204;6.568;2023-09-19T07:32:34;15.20;74.10
51801;DHT22;37855;53.204;6.568;2023-09-19T07:35:04;15.20;74.10
51801;DHT22;37855;53.204;6.568;2023-09-19T07:37:31;15.20;74.00
51801;DHT22;37855;53.204;6.568;2023-09-19T07:40:03;15.20;74.00
51801;DHT22;37855;53.204;6.568;2023-09-19T07:42:36;15.30;73.90
51801;DHT22;37855;53.204;6.568;2023-09-19T07:45:07;15.30;73.90
51801;DHT22;37855;53.204;6.568;2023-09-19T07:47:33;15.40;73.70
51801;DHT22;37855;53.204;6.568;2023-09-19T07:50:00;15.40;73.40
51801;DHT22;37855;53.204;6.568;2023-09-19T07:52:29;15.40;73.30
51801;DHT22;37855;53.204;6.568;2023-09-19T07:54:55;15.50;73.40
51801;DHT22;37855;53.204;6.568;2023-09-19T07:57:22;15.50;73.20
51801;DHT22;37855;53.204;6.568;2023-09-19T07:59:48;15.50;72.80
51801;DHT22;37855;53.204;6.568;2023-09-19T08:02:14;15.50;72.70
51801;DHT22;37855;53.204;6.568;2023-09-19T08:04:44;15.50;72.70
51801;DHT22;37855;53.204;6.568;2023-09-19T08:07:12;15.50;72.70
51801;DHT22;37855;53.204;6.568;2023-09-19T08:09:41;15.60;72.80
51801;DHT22;37855;53.204;6.568;2023-09-19T08:12:11;15.60;72.70
51801;DHT22;37855;53.204;6.568;2023-09-19T08:14:37;15.60;72.60
51801;DHT22;37855;53.204;6.568;2023-09-19T08:17:03;15.60;72.60
51801;DHT22;37855;53.204;6.568;2023-09-19T08:19:33;15.70;72.50
51801;DHT22;37855;53.204;6.568;2023-09-19T08:22:04;15.70;72.10
51801;DHT22;37855;53.204;6.568;2023-09-19T08:24:30;15.80;72.10
51801;DHT22;37855;53.204;6.568;2023-09-19T08:26:57;15.80;71.90
51801;DHT22;37855;53.204;6.568;2023-09-19T08:29:24;15.90;71.90
51801;DHT22;37855;53.204;6.568;2023-09-19T08:31:57;16.00;71.70
51801;DHT22;37855;53.204;6.568;2023-09-19T08:34:26;16.00;71.50
51801;DHT22;37855;53.204;6.568;2023-09-19T08:36:52;16.00;71.70
51801;DHT22;37855;53.204;6.568;2023-09-19T08:39:22;16.00;71.40
51801;DHT22;37855;53.204;6.568;2023-09-19T08:41:48;16.10;71.50
51801;DHT22;37855;53.204;6.568;2023-09-19T08:44:13;16.10;71.50
51801;DHT22;37855;53.204;6.568;2023-09-19T08:46:42;16.20;71.10
51801;DHT22;37855;53.204;6.568;2023-09-19T08:52:25;16.20;71.10
51801;DHT22;37855;53.204;6.568;2023-09-19T08:54:58;16.30;71.10
51801;DHT22;37855;53.204;6.568;2023-09-19T08:57:26;16.30;71.10
51801;DHT22;37855;53.204;6.568;2023-09-19T08:59:55;16.40;70.80
51801;DHT22;37855;53.204;6.568;2023-09-19T09:02:23;16.40;70.70
51801;DHT22;37855;53.204;6.568;2023-09-19T09:04:50;16.50;70.60
51801;DHT22;37855;53.204;6.568;2023-09-19T09:07:17;16.50;70.40
51801;DHT22;37855;53.204;6.568;2023-09-19T09:09:44;16.60;70.30
51801;DHT22;37855;53.204;6.568;2023-09-19T09:12:14;16.60;69.80
51801;DHT22;37855;53.204;6.568;2023-09-19T09:14:44;16.60;70.30
51801;DHT22;37855;53.204;6.568;2023-09-19T09:17:11;16.60;70.50
51801;DHT22;37855;53.204;6.568;2023-09-19T09:19:40;16.70;70.40
51801;DHT22;37855;53.204;6.568;2023-09-19T09:22:10;16.70;70.50
51801;DHT22;37855;53.204;6.568;2023-09-19T09:24:37;16.70;70.40
51801;DHT22;37855;53.204;6.568;2023-09-19T09:27:06;16.70;70.30
51801;DHT22;37855;53.204;6.568;2023-09-19T09:29:44;16.80;70.40
51801;DHT22;37855;53.204;6.568;2023-09-19T09:34:44;16.80;70.40
51801;DHT22;37855;53.204;6.568;2023-09-19T09:37:15;16.80;70.50
51801;DHT22;37855;53.204;6.568;2023-09-19T09:39:49;16.90;70.20
51801;DHT22;37855;53.204;6.568;2023-09-19T09:42:36;16.90;70.00
51801;DHT22;37855;53.204;6.568;2023-09-19T09:45:24;16.90;70.20
51801;DHT22;37855;53.204;6.568;2023-09-19T09:48:00;17.00;70.00
51801;DHT22;37855;53.204;6.568;2023-09-19T09:50:36;17.20;69.80
51801;DHT22;37855;53.204;6.568;2023-09-19T09:53:25;17.30;69.10
51801;DHT22;37855;53.204;6.568;2023-09-19T09:56:09;17.40;69.20
51801;DHT22;37855;53.204;6.568;2023-09-19T09:58:50;17.50;68.80
51801;DHT22;37855;53.204;6.568;2023-09-19T10:01:17;17.60;68.40
51801;DHT22;37855;53.204;6.568;2023-09-19T10:03:43;17.60;68.50
51801;DHT22;37855;53.204;6.568;2023-09-19T10:06:12;17.70;68.20
51801;DHT22;37855;53.204;6.568;2023-09-19T10:09:08;17.70;67.70
51801;DHT22;37855;53.204;6.568;2023-09-19T10:11:45;17.70;67.80
51801;DHT22;37855;53.204;6.568;2023-09-19T10:14:13;17.80;67.30
51801;DHT22;37855;53.204;6.568;2023-09-19T10:16:46;17.80;67.20
51801;DHT22;37855;53.204;6.568;2023-09-19T10:19:19;17.80;67.30
51801;DHT22;37855;53.204;6.568;2023-09-19T10:21:50;17.90;66.90
51801;DHT22;37855;53.204;6.568;2023-09-19T10:24:19;17.90;66.40
51801;DHT22;37855;53.204;6.568;2023-09-19T10:26:46;18.00;66.40
51801;DHT22;37855;53.204;6.568;2023-09-19T10:29:15;18.10;66.40
51801;DHT22;37855;53.204;6.568;2023-09-19T10:31:44;18.10;66.10
51801;DHT22;37855;53.204;6.568;2023-09-19T10:34:15;18.10;66.00
51801;DHT22;37855;53.204;6.568;2023-09-19T10:36:44;18.20;66.20
51801;DHT22;37855;53.204;6.568;2023-09-19T10:39:11;18.20;66.20
51801;DHT22;37855;53.204;6.568;2023-09-19T10:41:39;18.30;65.90
51801;DHT22;37855;53.204;6.568;2023-09-19T10:44:05;18.30;65.80
51801;DHT22;37855;53.204;6.568;2023-09-19T10:46:34;18.40;65.40
51801;DHT22;37855;53.204;6.568;2023-09-19T10:49:02;18.40;65.40
51801;DHT22;37855;53.204;6.568;2023-09-19T10:51:38;18.40;65.40
51801;DHT22;37855;53.204;6.568;2023-09-19T10:54:13;18.40;65.40
51801;DHT22;37855;53.204;6.568;2023-09-19T10:56:50;18.40;64.90
51801;DHT22;37855;53.204;6.568;2023-09-19T10:59:19;18.30;64.70
51801;DHT22;37855;53.204;6.568;2023-09-19T11:01:50;18.20;64.40
51801;DHT22;37855;53.204;6.568;2023-09-19T11:04:32;18.20;64.70
51801;DHT22;37855;53.204;6.568;2023-09-19T11:07:11;18.20;64.90
51801;DHT22;37855;53.204;6.568;2023-09-19T11:09:54;18.20;64.80
51801;DHT22;37855;53.204;6.568;2023-09-19T11:14:56;18.20;64.70
51801;DHT22;37855;53.204;6.568;2023-09-19T11:17:40;18.20;64.80
51801;DHT22;37855;53.204;6.568;2023-09-19T11:23:16;18.20;65.10
51801;DHT22;37855;53.204;6.568;2023-09-19T11:25:43;18.30;64.80
51801;DHT22;37855;53.204;6.568;2023-09-19T11:28:28;18.30;64.70
51801;DHT22;37855;53.204;6.568;2023-09-19T11:30:54;18.20;64.90
51801;DHT22;37855;53.204;6.568;2023-09-19T11:33:31;18.20;64.90
51801;DHT22;37855;53.204;6.568;2023-09-19T11:46:52;18.30;65.10
51801;DHT22;37855;53.204;6.568;2023-09-19T11:49:19;18.40;65.00
51801;DHT22;37855;53.204;6.568;2023-09-19T11:51:47;18.30;65.00
51801;DHT22;37855;53.204;6.568;2023-09-19T11:54:16;18.40;64.70
51801;DHT22;37855;53.204;6.568;2023-09-19T11:56:49;18.40;64.90
51801;DHT22;37855;53.204;6.568;2023-09-19T11:59:38;18.40;65.00
51801;DHT22;37855;53.204;6.568;2023-09-19T12:02:05;18.40;64.90
51801;DHT22;37855;53.204;6.568;2023-09-19T12:04:41;18.40;65.20
51801;DHT22;37855;53.204;6.568;2023-09-19T12:07:12;18.30;64.90
51801;DHT22;37855;53.204;6.568;2023-09-19T12:09:46;18.20;65.30
51801;DHT22;37855;53.204;6.568;2023-09-19T12:12:26;18.10;65.40
51801;DHT22;37855;53.204;6.568;2023-09-19T12:15:01;18.00;65.60
51801;DHT22;37855;53.204;6.568;2023-09-19T12:17:39;18.00;65.70
51801;DHT22;37855;53.204;6.568;2023-09-19T12:20:08;18.00;65.60
51801;DHT22;37855;53.204;6.568;2023-09-19T12:22:42;17.90;65.90
51801;DHT22;37855;53.204;6.568;2023-09-19T12:25:09;17.90;65.90
51801;DHT22;37855;53.204;6.568;2023-09-19T12:27:49;17.90;66.10
51801;DHT22;37855;53.204;6.568;2023-09-19T12:30:18;17.90;66.30
51801;DHT22;37855;53.204;6.568;2023-09-19T12:32:46;17.90;66.60
51801;DHT22;37855;53.204;6.568;2023-09-19T12:35:33;17.90;66.90
51801;DHT22;37855;53.204;6.568;2023-09-19T12:38:05;17.90;67.30
51801;DHT22;37855;53.204;6.568;2023-09-19T12:40:32;17.80;67.50
51801;DHT22;37855;53.204;6.568;2023-09-19T12:43:01;17.80;67.60
51801;DHT22;37855;53.204;6.568;2023-09-19T12:45:31;17.80;67.20
51801;DHT22;37855;53.204;6.568;2023-09-19T12:48:19;17.80;67.40
51801;DHT22;37855;53.204;6.568;2023-09-19T12:51:10;17.80;67.20
51801;DHT22;37855;53.204;6.568;2023-09-19T12:53:45;17.80;67.30
51801;DHT22;37855;53.204;6.568;2023-09-19T12:56:17;17.80;67.40
51801;DHT22;37855;53.204;6.568;2023-09-19T12:58:56;17.90;67.40
51801;DHT22;37855;53.204;6.568;2023-09-19T13:01:25;17.90;67.20
51801;DHT22;37855;53.204;6.568;2023-09-19T13:04:11;17.90;67.30
51801;DHT22;37855;53.204;6.568;2023-09-19T13:06:44;17.90;67.30
51801;DHT22;37855;53.204;6.568;2023-09-19T13:09:11;17.90;67.40
51801;DHT22;37855;53.204;6.568;2023-09-19T13:11:38;17.90;67.50
51801;DHT22;37855;53.204;6.568;2023-09-19T13:14:19;17.90;67.20
51801;DHT22;37855;53.204;6.568;2023-09-19T13:16:58;17.90;67.30
51801;DHT22;37855;53.204;6.568;2023-09-19T13:22:39;17.90;67.20
51801;DHT22;37855;53.204;6.568;2023-09-19T13:27:43;17.90;67.80
51801;DHT22;37855;53.204;6.568;2023-09-19T13:30:14;17.80;68.30
51801;DHT22;37855;53.204;6.568;2023-09-19T13:32:43;17.80;68.60
51801;DHT22;37855;53.204;6.568;2023-09-19T13:35:10;17.70;68.80
51801;DHT22;37855;53.204;6.568;2023-09-19T13:37:38;17.60;69.00
51801;DHT22;37855;53.204;6.568;2023-09-19T13:40:10;17.60;69.10
51801;DHT22;37855;53.204;6.568;2023-09-19T13:42:37;17.50;69.40
51801;DHT22;37855;53.204;6.568;2023-09-19T13:45:03;17.50;69.30
51801;DHT22;37855;53.204;6.568;2023-09-19T13:47:35;17.60;69.50
51801;DHT22;37855;53.204;6.568;2023-09-19T13:50:04;17.60;69.70
51801;DHT22;37855;53.204;6.568;2023-09-19T13:52:33;17.70;69.60
51801;DHT22;37855;53.204;6.568;2023-09-19T13:54:59;17.70;69.40
51801;DHT22;37855;53.204;6.568;2023-09-19T13:57:26;17.80;69.30
51801;DHT22;37855;53.204;6.568;2023-09-19T13:59:52;17.80;69.30
51801;DHT22;37855;53.204;6.568;2023-09-19T14:02:20;17.90;69.30
51801;DHT22;37855;53.204;6.568;2023-09-19T14:04:51;18.00;69.20
51801;DHT22;37855;53.204;6.568;2023-09-19T14:07:17;18.10;68.90
51801;DHT22;37855;53.204;6.568;2023-09-19T14:09:46;18.10;68.90
51801;DHT22;37855;53.204;6.568;2023-09-19T14:12:14;18.10;68.90
51801;DHT22;37855;53.204;6.568;2023-09-19T14:14:39;18.00;68.90
51801;DHT22;37855;53.204;6.568;2023-09-19T14:17:06;18.00;69.00
51801;DHT22;37855;53.204;6.568;2023-09-19T14:19:33;18.00;69.00
51801;DHT22;37855;53.204;6.568;2023-09-19T14:21:58;18.10;69.00
51801;DHT22;37855;53.204;6.568;2023-09-19T14:24:25;18.10;68.90
51801;DHT22;37855;53.204;6.568;2023-09-19T14:26:51;18.10;68.60
51801;DHT22;37855;53.204;6.568;2023-09-19T14:29:17;18.10;68.70
51801;DHT22;37855;53.204;6.568;2023-09-19T14:31:43;18.10;68.40
51801;DHT22;37855;53.204;6.568;2023-09-19T14:34:09;18.20;68.50
51801;DHT22;37855;53.204;6.568;2023-09-19T14:36:36;18.20;68.20
51801;DHT22;37855;53.204;6.568;2023-09-19T14:39:04;18.20;68.10
51801;DHT22;37855;53.204;6.568;2023-09-19T14:41:29;18.20;67.80
51801;DHT22;37855;53.204;6.568;2023-09-19T14:43:56;18.20;67.70
51801;DHT22;37855;53.204;6.568;2023-09-19T14:46:22;18.20;67.80
51801;DHT22;37855;53.204;6.568;2023-09-19T14:48:53;18.20;68.00
51801;DHT22;37855;53.204;6.568;2023-09-19T14:51:19;18.20;67.50
51801;DHT22;37855;53.204;6.568;2023-09-19T14:53:45;18.20;67.80
51801;DHT22;37855;53.204;6.568;2023-09-19T14:56:12;18.20;68.10
51801;DHT22;37855;53.204;6.568;2023-09-19T14:58:41;18.10;68.30
51801;DHT22;37855;53.204;6.568;2023-09-19T15:01:08;18.10;68.60
51801;DHT22;37855;53.204;6.568;2023-09-19T15:03:52;18.00;68.60
51801;DHT22;37855;53.204;6.568;2023-09-19T15:06:19;18.00;68.90
51801;DHT22;37855;53.204;6.568;2023-09-19T15:08:51;18.00;69.00
51801;DHT22;37855;53.204;6.568;2023-09-19T15:11:17;18.00;69.20
51801;DHT22;37855;53.204;6.568;2023-09-19T15:13:44;18.00;69.50
51801;DHT22;37855;53.204;6.568;2023-09-19T15:16:10;17.90;69.70
51801;DHT22;37855;53.204;6.568;2023-09-19T15:18:39;17.90;69.80
51801;DHT22;37855;53.204;6.568;2023-09-19T15:21:07;17.80;70.00
51801;DHT22;37855;53.204;6.568;2023-09-19T15:23:33;17.80;70.10
51801;DHT22;37855;53.204;6.568;2023-09-19T15:26:00;17.70;70.20
51801;DHT22;37855;53.204;6.568;2023-09-19T15:28:27;17.70;70.40
51801;DHT22;37855;53.204;6.568;2023-09-19T15:30:59;17.70;71.00
51801;DHT22;37855;53.204;6.568;2023-09-19T15:33:24;17.70;71.00
51801;DHT22;37855;53.204;6.568;2023-09-19T15:35:52;17.70;71.30
51801;DHT22;37855;53.204;6.568;2023-09-19T15:38:18;17.60;71.70
51801;DHT22;37855;53.204;6.568;2023-09-19T15:40:47;17.50;71.90
51801;DHT22;37855;53.204;6.568;2023-09-19T15:43:13;17.50;72.10
51801;DHT22;37855;53.204;6.568;2023-09-19T15:45:39;17.50;72.60
51801;DHT22;37855;53.204;6.568;2023-09-19T15:48:14;17.40;72.90
51801;DHT22;37855;53.204;6.568;2023-09-19T15:50:40;17.40;73.20
51801;DHT22;37855;53.204;6.568;2023-09-19T15:53:07;17.30;73.20
51801;DHT22;37855;53.204;6.568;2023-09-19T15:55:41;17.30;73.50
51801;DHT22;37855;53.204;6.568;2023-09-19T15:58:07;17.30;73.50
51801;DHT22;37855;53.204;6.568;2023-09-19T16:00:34;17.20;73.50
51801;DHT22;37855;53.204;6.568;2023-09-19T16:03:00;17.20;73.90
51801;DHT22;37855;53.204;6.568;2023-09-19T16:05:26;17.20;73.90
51801;DHT22;37855;53.204;6.568;2023-09-19T16:07:53;17.20;74.20
51801;DHT22;37855;53.204;6.568;2023-09-19T16:10:19;17.20;74.10
51801;DHT22;37855;53.204;6.568;2023-09-19T16:12:45;17.20;74.00
51801;DHT22;37855;53.204;6.568;2023-09-19T16:15:10;17.20;73.90
51801;DHT22;37855;53.204;6.568;2023-09-19T16:17:37;17.20;73.80
51801;DHT22;37855;53.204;6.568;2023-09-19T16:20:03;17.20;74.00
51801;DHT22;37855;53.204;6.568;2023-09-19T16:22:29;17.20;74.30
51801;DHT22;37855;53.204;6.568;2023-09-19T16:24:54;17.10;74.30
51801;DHT22;37855;53.204;6.568;2023-09-19T16:27:20;17.10;74.40
51801;DHT22;37855;53.204;6.568;2023-09-19T16:29:47;17.10;74.40
51801;DHT22;37855;53.204;6.568;2023-09-19T16:32:14;17.00;74.50
51801;DHT22;37855;53.204;6.568;2023-09-19T16:34:41;17.10;74.80
51801;DHT22;37855;53.204;6.568;2023-09-19T16:37:07;17.00;74.90
51801;DHT22;37855;53.204;6.568;2023-09-19T16:39:32;17.00;75.10
51801;DHT22;37855;53.204;6.568;2023-09-19T16:41:59;17.00;75.20
51801;DHT22;37855;53.204;6.568;2023-09-19T16:44:25;17.00;75.10
51801;DHT22;37855;53.204;6.568;2023-09-19T16:46:50;17.10;75.20
51801;DHT22;37855;53.204;6.568;2023-09-19T16:49:16;17.10;75.10
51801;DHT22;37855;53.204;6.568;2023-09-19T16:51:42;17.10;75.20
51801;DHT22;37855;53.204;6.568;2023-09-19T16:54:09;17.00;75.30
51801;DHT22;37855;53.204;6.568;2023-09-19T16:56:34;17.00;75.70
51801;DHT22;37855;53.204;6.568;2023-09-19T16:59:02;16.90;75.90
51801;DHT22;37855;53.204;6.568;2023-09-19T17:01:32;16.90;76.20
51801;DHT22;37855;53.204;6.568;2023-09-19T17:03:58;16.80;76.30
51801;DHT22;37855;53.204;6.568;2023-09-19T17:06:25;16.80;76.80
51801;DHT22;37855;53.204;6.568;2023-09-19T17:08:51;16.70;77.00
51801;DHT22;37855;53.204;6.568;2023-09-19T17:11:17;16.70;77.10
51801;DHT22;37855;53.204;6.568;2023-09-19T17:13:47;16.60;77.30
51801;DHT22;37855;53.204;6.568;2023-09-19T17:16:16;16.60;77.50
51801;DHT22;37855;53.204;6.568;2023-09-19T17:18:53;16.60;77.50
51801;DHT22;37855;53.204;6.568;2023-09-19T17:21:19;16.60;77.60
51801;DHT22;37855;53.204;6.568;2023-09-19T17:23:45;16.60;77.50
51801;DHT22;37855;53.204;6.568;2023-09-19T17:26:14;16.60;77.60
51801;DHT22;37855;53.204;6.568;2023-09-19T17:28:40;16.50;77.70
51801;DHT22;37855;53.204;6.568;2023-09-19T17:31:11;16.50;77.90
51801;DHT22;37855;53.204;6.568;2023-09-19T17:33:38;16.50;78.00
51801;DHT22;37855;53.204;6.568;2023-09-19T17:36:12;16.50;78.00
51801;DHT22;37855;53.204;6.568;2023-09-19T17:38:44;16.50;78.20
51801;DHT22;37855;53.204;6.568;2023-09-19T17:41:10;16.50;78.10
51801;DHT22;37855;53.204;6.568;2023-09-19T17:43:41;16.50;78.20
51801;DHT22;37855;53.204;6.568;2023-09-19T17:46:11;16.50;78.40
51801;DHT22;37855;53.204;6.568;2023-09-19T17:48:40;16.60;77.90
51801;DHT22;37855;53.204;6.568;2023-09-19T17:51:06;16.60;77.80
51801;DHT22;37855;53.204;6.568;2023-09-19T17:53:32;16.50;77.90
51801;DHT22;37855;53.204;6.568;2023-09-19T17:56:03;16.50;77.90
51801;DHT22;37855;53.204;6.568;2023-09-19T17:58:29;16.50;78.10
51801;DHT22;37855;53.204;6.568;2023-09-19T18:00:55;16.50;78.20
51801;DHT22;37855;53.204;6.568;2023-09-19T18:03:23;16.40;78.20
51801;DHT22;37855;53.204;6.568;2023-09-19T18:05:52;16.40;78.40
51801;DHT22;37855;53.204;6.568;2023-09-19T18:08:20;16.40;78.30
51801;DHT22;37855;53.204;6.568;2023-09-19T18:10:48;16.40;78.70
51801;DHT22;37855;53.204;6.568;2023-09-19T18:13:14;16.30;78.80
51801;DHT22;37855;53.204;6.568;2023-09-19T18:15:40;16.30;79.10
51801;DHT22;37855;53.204;6.568;2023-09-19T18:18:05;16.30;78.90